LYTV

Tivat Airport

Tivat, Montenegro
TAF LYTV 180500Z 1806/1906 24006KT CAVOK TX26/1813Z TN10/1904Z
Issued Valid From Valid To
Oct-18 @ 05:00 UTC
(7 hours ago)
Oct-18 @ 06:00 UTC
(6 hours ago)
Oct-19 @ 06:00 UTC
(in 18 hours)
Oct-18 @ 06:00 to Oct-19 @ 06:00
TAF LYTV 180500Z 1806/1906 24006KT CAVOK TX26/1813Z TN10/1904Z
Wind Visibility Clouds
240° at 6 knots 10,000+ meters
  • No significant clouds
TAF LYTV 180500Z 1806/1906 24006KT CAVOK TX26/1813Z TN10/1904Z
Issued Oct-18 @ 05:00 UTC
(7 hours ago)
Valid From Oct-18 @ 06:00 UTC
(6 hours ago)
Valid To Oct-19 @ 06:00 UTC
(in 18 hours)
Oct-18 @ 06:00 - Oct-19 @ 06:00
Wind Visibility
240° at 6 knots 10,000+ meters
Clouds
  • No significant clouds